sensor_id;sensor_type;location;lat;lon;timestamp;P1;durP1;ratioP1;P2;durP2;ratioP2
20229;SDS011;12195;55.790;37.572;2022-12-11T00:01:59;31.23;;;8.13;;
20229;SDS011;12195;55.790;37.572;2022-12-11T00:04:31;36.00;;;9.40;;
20229;SDS011;12195;55.790;37.572;2022-12-11T00:07:04;40.03;;;10.23;;
20229;SDS011;12195;55.790;37.572;2022-12-11T00:09:36;31.00;;;8.90;;
20229;SDS011;12195;55.790;37.572;2022-12-11T00:12:08;28.67;;;9.98;;
20229;SDS011;12195;55.790;37.572;2022-12-11T00:14:42;32.97;;;10.80;;
20229;SDS011;12195;55.790;37.572;2022-12-11T00:17:14;29.67;;;9.40;;
20229;SDS011;12195;55.790;37.572;2022-12-11T00:19:47;28.55;;;10.43;;
20229;SDS011;12195;55.790;37.572;2022-12-11T00:22:20;30.10;;;10.88;;
20229;SDS011;12195;55.790;37.572;2022-12-11T00:24:53;30.12;;;9.88;;
20229;SDS011;12195;55.790;37.572;2022-12-11T00:27:25;23.80;;;8.55;;
20229;SDS011;12195;55.790;37.572;2022-12-11T00:29:57;39.80;;;10.20;;
20229;SDS011;12195;55.790;37.572;2022-12-11T00:32:32;27.22;;;9.15;;
20229;SDS011;12195;55.790;37.572;2022-12-11T00:37:38;27.20;;;9.55;;
20229;SDS011;12195;55.790;37.572;2022-12-11T00:40:10;35.68;;;9.35;;
20229;SDS011;12195;55.790;37.572;2022-12-11T00:42:42;34.30;;;9.45;;
20229;SDS011;12195;55.790;37.572;2022-12-11T00:45:14;25.97;;;8.13;;
20229;SDS011;12195;55.790;37.572;2022-12-11T00:47:47;26.05;;;9.38;;
20229;SDS011;12195;55.790;37.572;2022-12-11T00:50:19;29.23;;;9.60;;
20229;SDS011;12195;55.790;37.572;2022-12-11T00:52:52;26.12;;;9.35;;
20229;SDS011;12195;55.790;37.572;2022-12-11T00:55:24;27.20;;;8.70;;
20229;SDS011;12195;55.790;37.572;2022-12-11T00:57:58;26.85;;;9.33;;
20229;SDS011;12195;55.790;37.572;2022-12-11T01:00:30;40.00;;;9.50;;
20229;SDS011;12195;55.790;37.572;2022-12-11T01:03:02;23.27;;;8.48;;
20229;SDS011;12195;55.790;37.572;2022-12-11T01:05:35;40.08;;;8.58;;
20229;SDS011;12195;55.790;37.572;2022-12-11T01:08:07;32.33;;;10.23;;
20229;SDS011;12195;55.790;37.572;2022-12-11T01:10:40;31.15;;;9.08;;
20229;SDS011;12195;55.790;37.572;2022-12-11T01:13:12;25.48;;;9.53;;
20229;SDS011;12195;55.790;37.572;2022-12-11T01:15:44;33.40;;;10.80;;
20229;SDS011;12195;55.790;37.572;2022-12-11T01:18:17;32.78;;;10.15;;
20229;SDS011;12195;55.790;37.572;2022-12-11T01:20:49;27.55;;;9.20;;
20229;SDS011;12195;55.790;37.572;2022-12-11T01:23:21;34.30;;;9.40;;
20229;SDS011;12195;55.790;37.572;2022-12-11T01:25:53;22.20;;;8.68;;
20229;SDS011;12195;55.790;37.572;2022-12-11T01:28:25;27.07;;;9.88;;
20229;SDS011;12195;55.790;37.572;2022-12-11T01:30:57;31.20;;;10.08;;
20229;SDS011;12195;55.790;37.572;2022-12-11T01:33:30;28.90;;;8.80;;
20229;SDS011;12195;55.790;37.572;2022-12-11T01:36:17;31.33;;;8.95;;
20229;SDS011;12195;55.790;37.572;2022-12-11T01:38:47;27.55;;;10.00;;
20229;SDS011;12195;55.790;37.572;2022-12-11T01:41:19;30.85;;;9.88;;
20229;SDS011;12195;55.790;37.572;2022-12-11T01:44:02;33.63;;;10.30;;
20229;SDS011;12195;55.790;37.572;2022-12-11T01:46:33;28.98;;;10.15;;
20229;SDS011;12195;55.790;37.572;2022-12-11T01:49:07;39.53;;;10.15;;
20229;SDS011;12195;55.790;37.572;2022-12-11T01:51:52;25.45;;;8.85;;
20229;SDS011;12195;55.790;37.572;2022-12-11T01:54:25;20.82;;;8.18;;
20229;SDS011;12195;55.790;37.572;2022-12-11T01:57:00;30.85;;;9.50;;
20229;SDS011;12195;55.790;37.572;2022-12-11T01:59:35;35.80;;;10.18;;
20229;SDS011;12195;55.790;37.572;2022-12-11T02:02:17;31.15;;;9.18;;
20229;SDS011;12195;55.790;37.572;2022-12-11T02:04:53;18.60;;;8.48;;
20229;SDS011;12195;55.790;37.572;2022-12-11T02:07:25;28.75;;;8.65;;
20229;SDS011;12195;55.790;37.572;2022-12-11T02:09:58;22.00;;;8.73;;
20229;SDS011;12195;55.790;37.572;2022-12-11T02:12:33;20.17;;;8.65;;
20229;SDS011;12195;55.790;37.572;2022-12-11T02:18:13;24.45;;;8.85;;
20229;SDS011;12195;55.790;37.572;2022-12-11T02:26:48;25.77;;;8.23;;
20229;SDS011;12195;55.790;37.572;2022-12-11T02:29:24;15.38;;;7.28;;
20229;SDS011;12195;55.790;37.572;2022-12-11T02:32:12;24.80;;;8.43;;
20229;SDS011;12195;55.790;37.572;2022-12-11T02:34:57;29.57;;;8.88;;
20229;SDS011;12195;55.790;37.572;2022-12-11T02:37:31;15.75;;;7.20;;
20229;SDS011;12195;55.790;37.572;2022-12-11T02:40:06;16.23;;;7.80;;
20229;SDS011;12195;55.790;37.572;2022-12-11T02:42:41;39.70;;;8.98;;
20229;SDS011;12195;55.790;37.572;2022-12-11T02:45:15;29.05;;;8.88;;
20229;SDS011;12195;55.790;37.572;2022-12-11T02:47:48;37.80;;;8.70;;
20229;SDS011;12195;55.790;37.572;2022-12-11T02:50:22;30.05;;;8.40;;
20229;SDS011;12195;55.790;37.572;2022-12-11T02:52:55;16.00;;;7.42;;
20229;SDS011;12195;55.790;37.572;2022-12-11T02:58:06;44.23;;;9.58;;
20229;SDS011;12195;55.790;37.572;2022-12-11T03:00:51;25.45;;;8.50;;
20229;SDS011;12195;55.790;37.572;2022-12-11T03:03:24;21.48;;;8.33;;
20229;SDS011;12195;55.790;37.572;2022-12-11T03:08:30;33.38;;;9.88;;
20229;SDS011;12195;55.790;37.572;2022-12-11T03:11:02;34.05;;;9.65;;
20229;SDS011;12195;55.790;37.572;2022-12-11T03:13:34;26.40;;;9.08;;
20229;SDS011;12195;55.790;37.572;2022-12-11T03:16:13;33.50;;;8.97;;
20229;SDS011;12195;55.790;37.572;2022-12-11T03:21:53;41.63;;;9.38;;
20229;SDS011;12195;55.790;37.572;2022-12-11T03:24:52;28.47;;;8.80;;
20229;SDS011;12195;55.790;37.572;2022-12-11T03:27:44;39.95;;;9.30;;
20229;SDS011;12195;55.790;37.572;2022-12-11T03:30:24;31.57;;;7.62;;
20229;SDS011;12195;55.790;37.572;2022-12-11T03:33:02;34.75;;;8.60;;
20229;SDS011;12195;55.790;37.572;2022-12-11T03:35:44;24.57;;;8.23;;
20229;SDS011;12195;55.790;37.572;2022-12-11T03:38:22;40.88;;;9.50;;
20229;SDS011;12195;55.790;37.572;2022-12-11T03:40:57;35.85;;;8.25;;
20229;SDS011;12195;55.790;37.572;2022-12-11T03:43:30;41.98;;;9.25;;
20229;SDS011;12195;55.790;37.572;2022-12-11T03:46:04;52.08;;;11.33;;
20229;SDS011;12195;55.790;37.572;2022-12-11T03:48:39;33.38;;;8.95;;
20229;SDS011;12195;55.790;37.572;2022-12-11T03:51:14;33.63;;;7.75;;
20229;SDS011;12195;55.790;37.572;2022-12-11T03:56:19;26.77;;;8.33;;
20229;SDS011;12195;55.790;37.572;2022-12-11T03:58:52;35.55;;;8.20;;
20229;SDS011;12195;55.790;37.572;2022-12-11T04:01:24;34.90;;;8.73;;
20229;SDS011;12195;55.790;37.572;2022-12-11T04:03:56;51.33;;;10.65;;
20229;SDS011;12195;55.790;37.572;2022-12-11T04:06:28;45.50;;;9.63;;
20229;SDS011;12195;55.790;37.572;2022-12-11T04:09:01;47.78;;;9.70;;
20229;SDS011;12195;55.790;37.572;2022-12-11T04:11:33;40.73;;;9.40;;
20229;SDS011;12195;55.790;37.572;2022-12-11T04:14:06;47.17;;;10.65;;
20229;SDS011;12195;55.790;37.572;2022-12-11T04:16:58;43.70;;;10.00;;
20229;SDS011;12195;55.790;37.572;2022-12-11T04:19:31;59.23;;;11.78;;
20229;SDS011;12195;55.790;37.572;2022-12-11T04:22:21;48.13;;;9.85;;
20229;SDS011;12195;55.790;37.572;2022-12-11T04:25:10;56.15;;;11.60;;
20229;SDS011;12195;55.790;37.572;2022-12-11T04:27:42;40.67;;;9.28;;
20229;SDS011;12195;55.790;37.572;2022-12-11T04:30:22;34.78;;;9.55;;
20229;SDS011;12195;55.790;37.572;2022-12-11T04:32:57;48.87;;;11.25;;
20229;SDS011;12195;55.790;37.572;2022-12-11T04:35:29;35.58;;;8.15;;
20229;SDS011;12195;55.790;37.572;2022-12-11T04:38:01;21.02;;;7.92;;
20229;SDS011;12195;55.790;37.572;2022-12-11T04:40:33;33.95;;;9.50;;
20229;SDS011;12195;55.790;37.572;2022-12-11T04:43:05;46.18;;;10.05;;
20229;SDS011;12195;55.790;37.572;2022-12-11T04:45:38;38.00;;;10.23;;
20229;SDS011;12195;55.790;37.572;2022-12-11T04:48:10;50.70;;;10.93;;
20229;SDS011;12195;55.790;37.572;2022-12-11T04:50:43;37.03;;;9.55;;
20229;SDS011;12195;55.790;37.572;2022-12-11T04:53:16;57.80;;;11.30;;
20229;SDS011;12195;55.790;37.572;2022-12-11T04:55:48;86.75;;;13.03;;
20229;SDS011;12195;55.790;37.572;2022-12-11T04:58:21;42.90;;;10.13;;
20229;SDS011;12195;55.790;37.572;2022-12-11T05:00:54;58.50;;;12.13;;
20229;SDS011;12195;55.790;37.572;2022-12-11T05:03:26;37.23;;;9.15;;
20229;SDS011;12195;55.790;37.572;2022-12-11T05:05:58;46.15;;;10.58;;
20229;SDS011;12195;55.790;37.572;2022-12-11T05:08:32;63.45;;;13.50;;
20229;SDS011;12195;55.790;37.572;2022-12-11T05:11:05;46.77;;;11.18;;
20229;SDS011;12195;55.790;37.572;2022-12-11T05:13:39;52.30;;;11.28;;
20229;SDS011;12195;55.790;37.572;2022-12-11T05:16:12;43.05;;;10.15;;
20229;SDS011;12195;55.790;37.572;2022-12-11T05:18:47;39.45;;;10.72;;
20229;SDS011;12195;55.790;37.572;2022-12-11T05:21:19;50.25;;;11.60;;
20229;SDS011;12195;55.790;37.572;2022-12-11T05:23:51;45.52;;;11.75;;
20229;SDS011;12195;55.790;37.572;2022-12-11T05:26:23;65.40;;;12.60;;
20229;SDS011;12195;55.790;37.572;2022-12-11T05:28:56;53.17;;;12.20;;
20229;SDS011;12195;55.790;37.572;2022-12-11T05:31:28;50.85;;;11.80;;
20229;SDS011;12195;55.790;37.572;2022-12-11T05:34:00;47.53;;;11.60;;
20229;SDS011;12195;55.790;37.572;2022-12-11T05:36:33;57.65;;;11.38;;
20229;SDS011;12195;55.790;37.572;2022-12-11T05:39:06;38.42;;;10.65;;
20229;SDS011;12195;55.790;37.572;2022-12-11T05:41:38;50.03;;;11.28;;
20229;SDS011;12195;55.790;37.572;2022-12-11T05:44:11;55.28;;;11.10;;
20229;SDS011;12195;55.790;37.572;2022-12-11T05:46:44;59.70;;;11.97;;
20229;SDS011;12195;55.790;37.572;2022-12-11T05:49:16;57.38;;;13.18;;
20229;SDS011;12195;55.790;37.572;2022-12-11T05:51:49;26.70;;;9.93;;
20229;SDS011;12195;55.790;37.572;2022-12-11T05:54:21;36.50;;;11.12;;
20229;SDS011;12195;55.790;37.572;2022-12-11T05:56:53;36.50;;;11.12;;
20229;SDS011;12195;55.790;37.572;2022-12-11T05:59:25;52.33;;;12.73;;
20229;SDS011;12195;55.790;37.572;2022-12-11T06:01:57;66.47;;;13.50;;
20229;SDS011;12195;55.790;37.572;2022-12-11T06:04:33;48.50;;;13.03;;
20229;SDS011;12195;55.790;37.572;2022-12-11T06:07:06;44.80;;;11.00;;
20229;SDS011;12195;55.790;37.572;2022-12-11T06:09:38;55.95;;;13.03;;
20229;SDS011;12195;55.790;37.572;2022-12-11T06:12:11;57.80;;;14.50;;
20229;SDS011;12195;55.790;37.572;2022-12-11T06:14:43;28.27;;;11.28;;
20229;SDS011;12195;55.790;37.572;2022-12-11T06:17:15;48.08;;;13.00;;
20229;SDS011;12195;55.790;37.572;2022-12-11T06:19:48;42.83;;;12.50;;
20229;SDS011;12195;55.790;37.572;2022-12-11T06:22:20;50.63;;;12.90;;
20229;SDS011;12195;55.790;37.572;2022-12-11T06:24:52;36.13;;;12.55;;
20229;SDS011;12195;55.790;37.572;2022-12-11T06:27:25;51.75;;;13.53;;
20229;SDS011;12195;55.790;37.572;2022-12-11T06:29:57;53.63;;;13.25;;
20229;SDS011;12195;55.790;37.572;2022-12-11T06:32:30;67.32;;;15.50;;
20229;SDS011;12195;55.790;37.572;2022-12-11T06:35:03;33.70;;;13.08;;
20229;SDS011;12195;55.790;37.572;2022-12-11T06:37:36;40.80;;;12.50;;
20229;SDS011;12195;55.790;37.572;2022-12-11T06:40:09;75.10;;;14.83;;
20229;SDS011;12195;55.790;37.572;2022-12-11T06:42:42;66.90;;;14.90;;
20229;SDS011;12195;55.790;37.572;2022-12-11T06:45:14;53.70;;;14.28;;
20229;SDS011;12195;55.790;37.572;2022-12-11T06:47:46;84.80;;;16.55;;
20229;SDS011;12195;55.790;37.572;2022-12-11T06:50:18;48.87;;;14.70;;
20229;SDS011;12195;55.790;37.572;2022-12-11T06:52:50;37.90;;;12.98;;
20229;SDS011;12195;55.790;37.572;2022-12-11T06:55:22;37.08;;;12.75;;
20229;SDS011;12195;55.790;37.572;2022-12-11T06:57:55;57.15;;;14.00;;
20229;SDS011;12195;55.790;37.572;2022-12-11T07:00:27;49.93;;;13.78;;
20229;SDS011;12195;55.790;37.572;2022-12-11T07:02:59;32.98;;;13.13;;
20229;SDS011;12195;55.790;37.572;2022-12-11T07:05:31;54.85;;;14.30;;
20229;SDS011;12195;55.790;37.572;2022-12-11T07:08:04;59.85;;;15.90;;
20229;SDS011;12195;55.790;37.572;2022-12-11T07:10:36;36.90;;;14.10;;
20229;SDS011;12195;55.790;37.572;2022-12-11T07:13:09;62.43;;;15.85;;
20229;SDS011;12195;55.790;37.572;2022-12-11T07:15:42;45.45;;;14.43;;
20229;SDS011;12195;55.790;37.572;2022-12-11T07:18:15;42.93;;;13.60;;
20229;SDS011;12195;55.790;37.572;2022-12-11T07:20:48;42.38;;;14.18;;
20229;SDS011;12195;55.790;37.572;2022-12-11T07:23:20;38.35;;;13.60;;
20229;SDS011;12195;55.790;37.572;2022-12-11T07:25:53;33.35;;;13.50;;
20229;SDS011;12195;55.790;37.572;2022-12-11T07:28:25;39.88;;;13.30;;
20229;SDS011;12195;55.790;37.572;2022-12-11T07:30:57;42.83;;;13.30;;
20229;SDS011;12195;55.790;37.572;2022-12-11T07:33:30;62.58;;;14.65;;
20229;SDS011;12195;55.790;37.572;2022-12-11T07:36:03;48.35;;;14.30;;
20229;SDS011;12195;55.790;37.572;2022-12-11T07:38:37;65.25;;;14.98;;
20229;SDS011;12195;55.790;37.572;2022-12-11T07:41:10;49.70;;;15.45;;
20229;SDS011;12195;55.790;37.572;2022-12-11T07:43:46;49.25;;;16.93;;
20229;SDS011;12195;55.790;37.572;2022-12-11T07:46:20;55.67;;;15.48;;
20229;SDS011;12195;55.790;37.572;2022-12-11T07:48:53;44.00;;;13.72;;
20229;SDS011;12195;55.790;37.572;2022-12-11T07:51:26;59.55;;;14.85;;
20229;SDS011;12195;55.790;37.572;2022-12-11T07:54:02;43.02;;;13.70;;
20229;SDS011;12195;55.790;37.572;2022-12-11T07:56:37;31.33;;;12.75;;
20229;SDS011;12195;55.790;37.572;2022-12-11T07:59:13;58.15;;;14.73;;
20229;SDS011;12195;55.790;37.572;2022-12-11T08:01:47;44.55;;;14.70;;
20229;SDS011;12195;55.790;37.572;2022-12-11T08:04:20;60.05;;;16.15;;
20229;SDS011;12195;55.790;37.572;2022-12-11T08:06:52;87.67;;;18.32;;
20229;SDS011;12195;55.790;37.572;2022-12-11T08:09:24;61.70;;;16.12;;
20229;SDS011;12195;55.790;37.572;2022-12-11T08:11:57;61.92;;;16.23;;
20229;SDS011;12195;55.790;37.572;2022-12-11T08:14:30;58.87;;;16.03;;
20229;SDS011;12195;55.790;37.572;2022-12-11T08:17:02;64.50;;;16.50;;
20229;SDS011;12195;55.790;37.572;2022-12-11T08:22:07;86.08;;;17.12;;
20229;SDS011;12195;55.790;37.572;2022-12-11T08:24:39;67.53;;;14.90;;
20229;SDS011;12195;55.790;37.572;2022-12-11T08:27:12;51.85;;;14.38;;
20229;SDS011;12195;55.790;37.572;2022-12-11T08:29:45;49.27;;;14.45;;
20229;SDS011;12195;55.790;37.572;2022-12-11T08:32:18;50.75;;;14.40;;
20229;SDS011;12195;55.790;37.572;2022-12-11T08:34:51;61.68;;;16.52;;
20229;SDS011;12195;55.790;37.572;2022-12-11T08:37:23;79.45;;;16.87;;
20229;SDS011;12195;55.790;37.572;2022-12-11T08:39:56;35.98;;;12.88;;
20229;SDS011;12195;55.790;37.572;2022-12-11T08:42:29;64.97;;;16.93;;
20229;SDS011;12195;55.790;37.572;2022-12-11T08:45:02;49.30;;;14.60;;
20229;SDS011;12195;55.790;37.572;2022-12-11T08:47:35;41.25;;;15.20;;
20229;SDS011;12195;55.790;37.572;2022-12-11T08:50:07;41.02;;;13.85;;
20229;SDS011;12195;55.790;37.572;2022-12-11T08:52:40;39.60;;;13.93;;
20229;SDS011;12195;55.790;37.572;2022-12-11T08:55:13;33.67;;;12.88;;
20229;SDS011;12195;55.790;37.572;2022-12-11T08:57:48;49.60;;;14.75;;
20229;SDS011;12195;55.790;37.572;2022-12-11T09:00:20;49.40;;;14.60;;
20229;SDS011;12195;55.790;37.572;2022-12-11T09:02:53;38.25;;;12.75;;
20229;SDS011;12195;55.790;37.572;2022-12-11T09:05:26;42.93;;;14.75;;
20229;SDS011;12195;55.790;37.572;2022-12-11T09:07:59;51.37;;;16.40;;
20229;SDS011;12195;55.790;37.572;2022-12-11T09:10:31;46.15;;;14.87;;
20229;SDS011;12195;55.790;37.572;2022-12-11T09:13:05;51.85;;;14.85;;
20229;SDS011;12195;55.790;37.572;2022-12-11T09:15:39;48.13;;;15.40;;
20229;SDS011;12195;55.790;37.572;2022-12-11T09:18:11;23.95;;;12.10;;
20229;SDS011;12195;55.790;37.572;2022-12-11T09:20:43;58.60;;;15.18;;
20229;SDS011;12195;55.790;37.572;2022-12-11T09:23:16;36.70;;;13.83;;
20229;SDS011;12195;55.790;37.572;2022-12-11T09:25:48;29.57;;;11.65;;
20229;SDS011;12195;55.790;37.572;2022-12-11T09:28:21;26.35;;;12.05;;
20229;SDS011;12195;55.790;37.572;2022-12-11T09:30:54;47.65;;;13.83;;
20229;SDS011;12195;55.790;37.572;2022-12-11T09:33:26;37.53;;;12.78;;
20229;SDS011;12195;55.790;37.572;2022-12-11T09:35:59;27.10;;;13.10;;
20229;SDS011;12195;55.790;37.572;2022-12-11T09:38:33;40.60;;;13.38;;
20229;SDS011;12195;55.790;37.572;2022-12-11T09:41:27;33.18;;;12.95;;
20229;SDS011;12195;55.790;37.572;2022-12-11T09:46:45;60.70;;;15.50;;
20229;SDS011;12195;55.790;37.572;2022-12-11T09:49:26;34.78;;;12.70;;
20229;SDS011;12195;55.790;37.572;2022-12-11T09:54:56;40.48;;;13.75;;
20229;SDS011;12195;55.790;37.572;2022-12-11T09:57:31;47.40;;;13.48;;
20229;SDS011;12195;55.790;37.572;2022-12-11T10:08:52;47.13;;;14.13;;
20229;SDS011;12195;55.790;37.572;2022-12-11T10:14:17;47.60;;;14.10;;
20229;SDS011;12195;55.790;37.572;2022-12-11T10:17:22;35.20;;;12.07;;
20229;SDS011;12195;55.790;37.572;2022-12-11T10:20:05;31.75;;;10.85;;
20229;SDS011;12195;55.790;37.572;2022-12-11T10:22:51;33.75;;;10.35;;
20229;SDS011;12195;55.790;37.572;2022-12-11T10:25:29;40.43;;;12.58;;
20229;SDS011;12195;55.790;37.572;2022-12-11T10:28:13;45.65;;;12.53;;
20229;SDS011;12195;55.790;37.572;2022-12-11T10:30:49;25.35;;;11.55;;
20229;SDS011;12195;55.790;37.572;2022-12-11T10:33:56;35.60;;;12.40;;
20229;SDS011;12195;55.790;37.572;2022-12-11T10:36:38;31.65;;;12.28;;
20229;SDS011;12195;55.790;37.572;2022-12-11T10:39:14;29.63;;;12.20;;
20229;SDS011;12195;55.790;37.572;2022-12-11T10:41:49;45.80;;;12.68;;
20229;SDS011;12195;55.790;37.572;2022-12-11T10:44:24;37.78;;;13.15;;
20229;SDS011;12195;55.790;37.572;2022-12-11T10:47:02;42.35;;;13.32;;
20229;SDS011;12195;55.790;37.572;2022-12-11T10:49:37;44.27;;;12.75;;
20229;SDS011;12195;55.790;37.572;2022-12-11T10:52:16;69.15;;;14.43;;
20229;SDS011;12195;55.790;37.572;2022-12-11T10:55:00;53.65;;;14.18;;
20229;SDS011;12195;55.790;37.572;2022-12-11T10:57:34;34.35;;;12.65;;
20229;SDS011;12195;55.790;37.572;2022-12-11T11:03:04;37.20;;;11.43;;
20229;SDS011;12195;55.790;37.572;2022-12-11T11:05:40;35.28;;;11.25;;
20229;SDS011;12195;55.790;37.572;2022-12-11T11:08:21;29.27;;;10.65;;
20229;SDS011;12195;55.790;37.572;2022-12-11T11:10:57;31.90;;;11.53;;
20229;SDS011;12195;55.790;37.572;2022-12-11T11:13:34;32.25;;;11.35;;
20229;SDS011;12195;55.790;37.572;2022-12-11T11:16:11;54.75;;;13.08;;
20229;SDS011;12195;55.790;37.572;2022-12-11T11:18:51;28.02;;;9.95;;
20229;SDS011;12195;55.790;37.572;2022-12-11T11:21:25;24.02;;;9.55;;
20229;SDS011;12195;55.790;37.572;2022-12-11T11:23:59;43.70;;;11.30;;
20229;SDS011;12195;55.790;37.572;2022-12-11T11:26:32;20.72;;;8.80;;
20229;SDS011;12195;55.790;37.572;2022-12-11T11:29:12;23.40;;;8.10;;
20229;SDS011;12195;55.790;37.572;2022-12-11T11:31:42;12.75;;;7.95;;
20229;SDS011;12195;55.790;37.572;2022-12-11T11:34:16;19.52;;;7.87;;
20229;SDS011;12195;55.790;37.572;2022-12-11T11:36:54;20.17;;;8.28;;
20229;SDS011;12195;55.790;37.572;2022-12-11T11:39:32;16.50;;;7.53;;
20229;SDS011;12195;55.790;37.572;2022-12-11T11:42:15;18.77;;;7.45;;
20229;SDS011;12195;55.790;37.572;2022-12-11T11:44:59;14.70;;;8.18;;
20229;SDS011;12195;55.790;37.572;2022-12-11T11:47:37;26.93;;;9.38;;
20229;SDS011;12195;55.790;37.572;2022-12-11T11:50:11;23.70;;;9.03;;
20229;SDS011;12195;55.790;37.572;2022-12-11T11:52:54;39.23;;;10.18;;
20229;SDS011;12195;55.790;37.572;2022-12-11T11:58:34;22.62;;;8.75;;
20229;SDS011;12195;55.790;37.572;2022-12-11T12:01:02;27.25;;;9.83;;
20229;SDS011;12195;55.790;37.572;2022-12-11T12:03:34;20.08;;;9.65;;
20229;SDS011;12195;55.790;37.572;2022-12-11T12:06:09;22.95;;;10.32;;
20229;SDS011;12195;55.790;37.572;2022-12-11T12:17:55;30.70;;;10.60;;
20229;SDS011;12195;55.790;37.572;2022-12-11T12:34:30;25.15;;;9.38;;
20229;SDS011;12195;55.790;37.572;2022-12-11T12:48:33;31.57;;;8.68;;
20229;SDS011;12195;55.790;37.572;2022-12-11T12:51:05;24.65;;;8.35;;
20229;SDS011;12195;55.790;37.572;2022-12-11T12:53:39;18.12;;;7.53;;
20229;SDS011;12195;55.790;37.572;2022-12-11T12:56:13;16.90;;;7.90;;
20229;SDS011;12195;55.790;37.572;2022-12-11T12:58:47;18.10;;;7.22;;
20229;SDS011;12195;55.790;37.572;2022-12-11T13:01:20;21.70;;;7.03;;
20229;SDS011;12195;55.790;37.572;2022-12-11T13:03:55;16.62;;;6.90;;
20229;SDS011;12195;55.790;37.572;2022-12-11T13:06:41;14.35;;;7.12;;
20229;SDS011;12195;55.790;37.572;2022-12-11T13:09:24;19.42;;;7.05;;
20229;SDS011;12195;55.790;37.572;2022-12-11T13:11:58;15.40;;;6.95;;
20229;SDS011;12195;55.790;37.572;2022-12-11T13:14:30;19.27;;;7.42;;
20229;SDS011;12195;55.790;37.572;2022-12-11T13:17:06;16.90;;;6.37;;
20229;SDS011;12195;55.790;37.572;2022-12-11T13:20:14;18.85;;;7.03;;
20229;SDS011;12195;55.790;37.572;2022-12-11T13:25:53;23.18;;;6.92;;
20229;SDS011;12195;55.790;37.572;2022-12-11T13:28:52;29.42;;;8.33;;
20229;SDS011;12195;55.790;37.572;2022-12-11T13:33:51;18.90;;;7.28;;
20229;SDS011;12195;55.790;37.572;2022-12-11T13:36:29;47.43;;;9.33;;
20229;SDS011;12195;55.790;37.572;2022-12-11T13:39:16;25.52;;;7.37;;
20229;SDS011;12195;55.790;37.572;2022-12-11T13:41:57;19.50;;;6.00;;
20229;SDS011;12195;55.790;37.572;2022-12-11T13:44:35;13.70;;;4.78;;
20229;SDS011;12195;55.790;37.572;2022-12-11T13:47:14;42.73;;;8.13;;
20229;SDS011;12195;55.790;37.572;2022-12-11T13:49:45;28.50;;;6.08;;
20229;SDS011;12195;55.790;37.572;2022-12-11T13:52:20;22.37;;;6.87;;
20229;SDS011;12195;55.790;37.572;2022-12-11T13:54:57;26.45;;;6.70;;
20229;SDS011;12195;55.790;37.572;2022-12-11T13:57:31;20.65;;;6.85;;
20229;SDS011;12195;55.790;37.572;2022-12-11T14:00:03;21.25;;;7.17;;
20229;SDS011;12195;55.790;37.572;2022-12-11T14:02:39;14.53;;;5.78;;
20229;SDS011;12195;55.790;37.572;2022-12-11T14:05:12;32.17;;;8.33;;
20229;SDS011;12195;55.790;37.572;2022-12-11T14:07:46;20.37;;;5.03;;
20229;SDS011;12195;55.790;37.572;2022-12-11T14:10:25;16.05;;;6.15;;
20229;SDS011;12195;55.790;37.572;2022-12-11T14:13:06;23.07;;;6.53;;
20229;SDS011;12195;55.790;37.572;2022-12-11T14:15:43;32.98;;;6.37;;
20229;SDS011;12195;55.790;37.572;2022-12-11T14:18:27;22.50;;;6.53;;
20229;SDS011;12195;55.790;37.572;2022-12-11T14:20:57;47.58;;;7.67;;
20229;SDS011;12195;55.790;37.572;2022-12-11T14:23:35;25.35;;;6.72;;
20229;SDS011;12195;55.790;37.572;2022-12-11T14:28:48;23.18;;;6.42;;
20229;SDS011;12195;55.790;37.572;2022-12-11T14:34:03;24.15;;;6.53;;
20229;SDS011;12195;55.790;37.572;2022-12-11T14:36:34;27.45;;;6.45;;
20229;SDS011;12195;55.790;37.572;2022-12-11T14:39:10;31.15;;;7.62;;
20229;SDS011;12195;55.790;37.572;2022-12-11T14:41:59;21.42;;;6.05;;
20229;SDS011;12195;55.790;37.572;2022-12-11T14:44:44;17.62;;;5.70;;
20229;SDS011;12195;55.790;37.572;2022-12-11T14:47:11;11.63;;;5.75;;
20229;SDS011;12195;55.790;37.572;2022-12-11T14:49:50;22.17;;;6.55;;
20229;SDS011;12195;55.790;37.572;2022-12-11T14:52:35;13.20;;;5.42;;
20229;SDS011;12195;55.790;37.572;2022-12-11T14:55:26;8.78;;;5.40;;
20229;SDS011;12195;55.790;37.572;2022-12-11T14:58:01;17.62;;;6.62;;
20229;SDS011;12195;55.790;37.572;2022-12-11T15:00:36;11.90;;;5.92;;
20229;SDS011;12195;55.790;37.572;2022-12-11T15:05:53;25.23;;;6.92;;
20229;SDS011;12195;55.790;37.572;2022-12-11T15:08:33;13.03;;;6.20;;
20229;SDS011;12195;55.790;37.572;2022-12-11T15:11:14;13.03;;;7.40;;
20229;SDS011;12195;55.790;37.572;2022-12-11T15:13:51;13.55;;;6.25;;
20229;SDS011;12195;55.790;37.572;2022-12-11T15:16:26;14.35;;;5.97;;
20229;SDS011;12195;55.790;37.572;2022-12-11T15:19:00;12.82;;;5.97;;
20229;SDS011;12195;55.790;37.572;2022-12-11T15:21:34;13.30;;;6.13;;
20229;SDS011;12195;55.790;37.572;2022-12-11T15:24:17;13.00;;;6.78;;
20229;SDS011;12195;55.790;37.572;2022-12-11T15:26:44;15.53;;;6.55;;
20229;SDS011;12195;55.790;37.572;2022-12-11T15:29:37;22.93;;;5.58;;
20229;SDS011;12195;55.790;37.572;2022-12-11T15:34:49;23.50;;;6.70;;
20229;SDS011;12195;55.790;37.572;2022-12-11T15:37:26;24.15;;;6.87;;
20229;SDS011;12195;55.790;37.572;2022-12-11T15:40:03;19.07;;;6.05;;
20229;SDS011;12195;55.790;37.572;2022-12-11T15:42:37;14.65;;;5.42;;
20229;SDS011;12195;55.790;37.572;2022-12-11T15:45:19;20.12;;;5.90;;
20229;SDS011;12195;55.790;37.572;2022-12-11T15:47:53;7.42;;;4.55;;
20229;SDS011;12195;55.790;37.572;2022-12-11T15:50:28;15.50;;;5.70;;
20229;SDS011;12195;55.790;37.572;2022-12-11T15:53:02;18.75;;;5.78;;
20229;SDS011;12195;55.790;37.572;2022-12-11T15:55:34;12.23;;;5.85;;
20229;SDS011;12195;55.790;37.572;2022-12-11T15:58:12;20.88;;;5.72;;
20229;SDS011;12195;55.790;37.572;2022-12-11T16:00:47;20.70;;;6.12;;
20229;SDS011;12195;55.790;37.572;2022-12-11T16:03:19;18.98;;;6.65;;
20229;SDS011;12195;55.790;37.572;2022-12-11T16:05:53;14.38;;;6.35;;
20229;SDS011;12195;55.790;37.572;2022-12-11T16:08:25;20.02;;;6.25;;
20229;SDS011;12195;55.790;37.572;2022-12-11T16:10:58;14.65;;;7.42;;
20229;SDS011;12195;55.790;37.572;2022-12-11T16:13:30;30.65;;;6.85;;
20229;SDS011;12195;55.790;37.572;2022-12-11T16:16:03;27.45;;;6.97;;
20229;SDS011;12195;55.790;37.572;2022-12-11T16:18:36;12.43;;;6.37;;
20229;SDS011;12195;55.790;37.572;2022-12-11T16:21:09;10.50;;;5.78;;
20229;SDS011;12195;55.790;37.572;2022-12-11T16:23:43;10.35;;;6.12;;
20229;SDS011;12195;55.790;37.572;2022-12-11T16:26:15;17.57;;;5.70;;
20229;SDS011;12195;55.790;37.572;2022-12-11T16:28:47;21.60;;;6.05;;
20229;SDS011;12195;55.790;37.572;2022-12-11T16:31:21;16.27;;;6.25;;
20229;SDS011;12195;55.790;37.572;2022-12-11T16:33:53;16.07;;;6.25;;
20229;SDS011;12195;55.790;37.572;2022-12-11T16:36:26;22.50;;;6.00;;
20229;SDS011;12195;55.790;37.572;2022-12-11T16:38:58;11.90;;;5.67;;
20229;SDS011;12195;55.790;37.572;2022-12-11T16:41:31;10.58;;;5.58;;